sensor_id;sensor_type;location;lat;lon;timestamp;P1;durP1;ratioP1;P2;durP2;ratioP2
48651;SDS011;34442;52.362;-1.302;2023-10-13T00:01:13;2.47;;;1.38;;
48651;SDS011;34442;52.362;-1.302;2023-10-13T00:03:59;1.77;;;1.00;;
48651;SDS011;34442;52.362;-1.302;2023-10-13T00:06:51;2.15;;;1.10;;
48651;SDS011;34442;52.362;-1.302;2023-10-13T00:09:38;2.35;;;1.40;;
48651;SDS011;34442;52.362;-1.302;2023-10-13T00:12:24;1.88;;;1.20;;
48651;SDS011;34442;52.362;-1.302;2023-10-13T00:15:10;2.00;;;1.05;;
48651;SDS011;34442;52.362;-1.302;2023-10-13T00:17:59;1.73;;;1.00;;
48651;SDS011;34442;52.362;-1.302;2023-10-13T00:20:44;2.08;;;1.20;;
48651;SDS011;34442;52.362;-1.302;2023-10-13T00:23:36;2.13;;;1.05;;
48651;SDS011;34442;52.362;-1.302;2023-10-13T00:26:22;1.60;;;1.00;;
48651;SDS011;34442;52.362;-1.302;2023-10-13T00:29:15;0.95;;;0.90;;
48651;SDS011;34442;52.362;-1.302;2023-10-13T00:32:01;1.73;;;0.95;;
48651;SDS011;34442;52.362;-1.302;2023-10-13T00:34:47;1.90;;;0.80;;
48651;SDS011;34442;52.362;-1.302;2023-10-13T00:37:33;1.42;;;0.90;;
48651;SDS011;34442;52.362;-1.302;2023-10-13T00:40:27;0.75;;;0.70;;
48651;SDS011;34442;52.362;-1.302;2023-10-13T00:43:16;0.63;;;0.60;;
48651;SDS011;34442;52.362;-1.302;2023-10-13T00:46:04;1.63;;;0.90;;
48651;SDS011;34442;52.362;-1.302;2023-10-13T00:48:50;1.80;;;0.75;;
48651;SDS011;34442;52.362;-1.302;2023-10-13T00:51:39;1.05;;;0.70;;
48651;SDS011;34442;52.362;-1.302;2023-10-13T00:54:33;1.02;;;0.60;;
48651;SDS011;34442;52.362;-1.302;2023-10-13T00:57:21;1.65;;;0.70;;
48651;SDS011;34442;52.362;-1.302;2023-10-13T01:00:13;0.47;;;0.47;;
48651;SDS011;34442;52.362;-1.302;2023-10-13T01:03:09;0.60;;;0.60;;
48651;SDS011;34442;52.362;-1.302;2023-10-13T01:05:57;0.60;;;0.60;;
48651;SDS011;34442;52.362;-1.302;2023-10-13T01:08:45;0.75;;;0.63;;
48651;SDS011;34442;52.362;-1.302;2023-10-13T01:11:36;1.13;;;0.57;;
48651;SDS011;34442;52.362;-1.302;2023-10-13T01:14:28;0.65;;;0.60;;
48651;SDS011;34442;52.362;-1.302;2023-10-13T01:17:14;0.50;;;0.50;;
48651;SDS011;34442;52.362;-1.302;2023-10-13T01:20:00;0.50;;;0.50;;
48651;SDS011;34442;52.362;-1.302;2023-10-13T01:22:46;0.50;;;0.50;;
48651;SDS011;34442;52.362;-1.302;2023-10-13T01:25:40;0.30;;;0.30;;
48651;SDS011;34442;52.362;-1.302;2023-10-13T01:28:26;0.65;;;0.60;;
48651;SDS011;34442;52.362;-1.302;2023-10-13T01:31:11;0.50;;;0.50;;
48651;SDS011;34442;52.362;-1.302;2023-10-13T01:33:58;1.23;;;0.57;;
48651;SDS011;34442;52.362;-1.302;2023-10-13T01:36:44;1.55;;;0.52;;
48651;SDS011;34442;52.362;-1.302;2023-10-13T01:39:30;0.55;;;0.40;;
48651;SDS011;34442;52.362;-1.302;2023-10-13T01:42:15;0.88;;;0.40;;
48651;SDS011;34442;52.362;-1.302;2023-10-13T01:45:09;1.27;;;0.60;;
48651;SDS011;34442;52.362;-1.302;2023-10-13T01:47:55;0.30;;;0.30;;
48651;SDS011;34442;52.362;-1.302;2023-10-13T01:50:41;0.38;;;0.38;;
48651;SDS011;34442;52.362;-1.302;2023-10-13T01:53:27;0.80;;;0.40;;
48651;SDS011;34442;52.362;-1.302;2023-10-13T01:56:14;0.40;;;0.40;;
48651;SDS011;34442;52.362;-1.302;2023-10-13T01:58:59;0.52;;;0.40;;
48651;SDS011;34442;52.362;-1.302;2023-10-13T02:01:45;0.35;;;0.35;;
48651;SDS011;34442;52.362;-1.302;2023-10-13T02:04:31;0.65;;;0.40;;
48651;SDS011;34442;52.362;-1.302;2023-10-13T02:07:18;0.55;;;0.40;;
48651;SDS011;34442;52.362;-1.302;2023-10-13T02:10:05;0.50;;;0.50;;
48651;SDS011;34442;52.362;-1.302;2023-10-13T02:12:51;0.50;;;0.50;;
48651;SDS011;34442;52.362;-1.302;2023-10-13T02:15:41;0.77;;;0.50;;
48651;SDS011;34442;52.362;-1.302;2023-10-13T02:18:29;3.15;;;0.90;;
48651;SDS011;34442;52.362;-1.302;2023-10-13T02:21:27;2.63;;;1.15;;
48651;SDS011;34442;52.362;-1.302;2023-10-13T02:24:17;1.48;;;0.90;;
48651;SDS011;34442;52.362;-1.302;2023-10-13T02:27:15;2.85;;;1.20;;
48651;SDS011;34442;52.362;-1.302;2023-10-13T02:30:00;2.25;;;1.30;;
48651;SDS011;34442;52.362;-1.302;2023-10-13T02:32:46;2.65;;;1.20;;
48651;SDS011;34442;52.362;-1.302;2023-10-13T02:35:33;2.55;;;1.17;;
48651;SDS011;34442;52.362;-1.302;2023-10-13T02:38:21;3.03;;;1.23;;
48651;SDS011;34442;52.362;-1.302;2023-10-13T02:41:30;1.90;;;1.10;;
48651;SDS011;34442;52.362;-1.302;2023-10-13T02:44:17;3.38;;;1.33;;
48651;SDS011;34442;52.362;-1.302;2023-10-13T02:47:26;2.13;;;1.10;;
48651;SDS011;34442;52.362;-1.302;2023-10-13T02:50:12;2.00;;;1.10;;
48651;SDS011;34442;52.362;-1.302;2023-10-13T02:52:58;3.35;;;1.40;;
48651;SDS011;34442;52.362;-1.302;2023-10-13T02:55:53;3.13;;;1.40;;
48651;SDS011;34442;52.362;-1.302;2023-10-13T02:58:42;2.67;;;1.42;;
48651;SDS011;34442;52.362;-1.302;2023-10-13T03:01:34;3.38;;;1.77;;
48651;SDS011;34442;52.362;-1.302;2023-10-13T03:04:20;2.83;;;1.50;;
48651;SDS011;34442;52.362;-1.302;2023-10-13T03:07:11;2.92;;;1.42;;
48651;SDS011;34442;52.362;-1.302;2023-10-13T03:10:00;2.95;;;1.50;;
48651;SDS011;34442;52.362;-1.302;2023-10-13T03:15:40;2.72;;;1.25;;
48651;SDS011;34442;52.362;-1.302;2023-10-13T03:18:26;4.05;;;1.50;;
48651;SDS011;34442;52.362;-1.302;2023-10-13T03:21:17;4.93;;;1.92;;
48651;SDS011;34442;52.362;-1.302;2023-10-13T03:24:16;3.38;;;1.52;;
48651;SDS011;34442;52.362;-1.302;2023-10-13T03:27:07;6.32;;;1.70;;
48651;SDS011;34442;52.362;-1.302;2023-10-13T03:29:57;4.72;;;2.05;;
48651;SDS011;34442;52.362;-1.302;2023-10-13T03:32:46;4.45;;;1.63;;
48651;SDS011;34442;52.362;-1.302;2023-10-13T03:35:40;5.60;;;2.13;;
48651;SDS011;34442;52.362;-1.302;2023-10-13T03:38:30;4.20;;;1.92;;
48651;SDS011;34442;52.362;-1.302;2023-10-13T03:41:21;3.75;;;1.77;;
48651;SDS011;34442;52.362;-1.302;2023-10-13T03:44:10;3.40;;;1.70;;
48651;SDS011;34442;52.362;-1.302;2023-10-13T03:47:03;4.30;;;1.88;;
48651;SDS011;34442;52.362;-1.302;2023-10-13T03:50:03;3.13;;;1.50;;
48651;SDS011;34442;52.362;-1.302;2023-10-13T03:53:02;3.35;;;1.40;;
48651;SDS011;34442;52.362;-1.302;2023-10-13T03:55:49;3.33;;;1.63;;
48651;SDS011;34442;52.362;-1.302;2023-10-13T03:58:38;2.88;;;1.40;;
48651;SDS011;34442;52.362;-1.302;2023-10-13T04:01:26;2.88;;;1.67;;
48651;SDS011;34442;52.362;-1.302;2023-10-13T04:04:29;3.05;;;1.38;;
48651;SDS011;34442;52.362;-1.302;2023-10-13T04:07:19;3.10;;;1.38;;
48651;SDS011;34442;52.362;-1.302;2023-10-13T04:10:11;2.22;;;1.20;;
48651;SDS011;34442;52.362;-1.302;2023-10-13T04:13:15;2.00;;;1.30;;
48651;SDS011;34442;52.362;-1.302;2023-10-13T04:16:00;3.15;;;1.38;;
48651;SDS011;34442;52.362;-1.302;2023-10-13T04:19:09;2.75;;;1.45;;
48651;SDS011;34442;52.362;-1.302;2023-10-13T04:22:05;3.55;;;1.63;;
48651;SDS011;34442;52.362;-1.302;2023-10-13T04:24:59;2.80;;;1.50;;
48651;SDS011;34442;52.362;-1.302;2023-10-13T04:28:09;3.75;;;1.60;;
48651;SDS011;34442;52.362;-1.302;2023-10-13T04:30:59;2.70;;;1.48;;
48651;SDS011;34442;52.362;-1.302;2023-10-13T04:33:52;3.67;;;1.40;;
48651;SDS011;34442;52.362;-1.302;2023-10-13T04:36:41;3.90;;;1.60;;
48651;SDS011;34442;52.362;-1.302;2023-10-13T04:39:31;3.42;;;1.90;;
48651;SDS011;34442;52.362;-1.302;2023-10-13T04:42:20;3.58;;;1.60;;
48651;SDS011;34442;52.362;-1.302;2023-10-13T04:45:24;4.10;;;2.03;;
48651;SDS011;34442;52.362;-1.302;2023-10-13T04:48:15;2.85;;;1.50;;
48651;SDS011;34442;52.362;-1.302;2023-10-13T04:51:07;3.72;;;1.70;;
48651;SDS011;34442;52.362;-1.302;2023-10-13T04:54:19;3.13;;;1.60;;
48651;SDS011;34442;52.362;-1.302;2023-10-13T04:57:11;4.30;;;1.90;;
48651;SDS011;34442;52.362;-1.302;2023-10-13T05:00:09;3.03;;;1.60;;
48651;SDS011;34442;52.362;-1.302;2023-10-13T05:02:58;3.25;;;1.80;;
48651;SDS011;34442;52.362;-1.302;2023-10-13T05:05:46;4.30;;;2.35;;
48651;SDS011;34442;52.362;-1.302;2023-10-13T05:08:52;4.80;;;1.75;;
48651;SDS011;34442;52.362;-1.302;2023-10-13T05:11:57;6.38;;;2.75;;
48651;SDS011;34442;52.362;-1.302;2023-10-13T05:15:02;4.50;;;2.42;;
48651;SDS011;34442;52.362;-1.302;2023-10-13T05:18:06;6.03;;;3.38;;
48651;SDS011;34442;52.362;-1.302;2023-10-13T05:21:10;4.53;;;2.58;;
48651;SDS011;34442;52.362;-1.302;2023-10-13T05:24:14;6.65;;;2.85;;
48651;SDS011;34442;52.362;-1.302;2023-10-13T05:27:19;4.38;;;2.40;;
48651;SDS011;34442;52.362;-1.302;2023-10-13T05:30:23;3.40;;;1.80;;
48651;SDS011;34442;52.362;-1.302;2023-10-13T05:33:27;4.82;;;2.22;;
48651;SDS011;34442;52.362;-1.302;2023-10-13T05:36:32;4.18;;;2.17;;
48651;SDS011;34442;52.362;-1.302;2023-10-13T05:39:37;4.28;;;2.13;;
48651;SDS011;34442;52.362;-1.302;2023-10-13T05:42:41;5.85;;;2.55;;
48651;SDS011;34442;52.362;-1.302;2023-10-13T05:45:45;5.35;;;2.38;;
48651;SDS011;34442;52.362;-1.302;2023-10-13T05:48:49;4.40;;;2.28;;
48651;SDS011;34442;52.362;-1.302;2023-10-13T05:51:44;4.13;;;2.25;;
48651;SDS011;34442;52.362;-1.302;2023-10-13T05:54:43;6.18;;;2.65;;
48651;SDS011;34442;52.362;-1.302;2023-10-13T05:57:47;7.30;;;2.78;;
48651;SDS011;34442;52.362;-1.302;2023-10-13T06:00:52;4.75;;;2.20;;
48651;SDS011;34442;52.362;-1.302;2023-10-13T06:03:57;6.10;;;2.38;;
48651;SDS011;34442;52.362;-1.302;2023-10-13T06:10:06;3.90;;;1.83;;
48651;SDS011;34442;52.362;-1.302;2023-10-13T06:13:10;4.22;;;1.88;;
48651;SDS011;34442;52.362;-1.302;2023-10-13T06:16:16;4.50;;;1.90;;
48651;SDS011;34442;52.362;-1.302;2023-10-13T06:19:21;5.60;;;1.85;;
48651;SDS011;34442;52.362;-1.302;2023-10-13T06:22:26;4.78;;;2.03;;
48651;SDS011;34442;52.362;-1.302;2023-10-13T06:25:30;5.05;;;2.10;;
48651;SDS011;34442;52.362;-1.302;2023-10-13T06:28:34;5.30;;;2.08;;
48651;SDS011;34442;52.362;-1.302;2023-10-13T06:31:26;4.97;;;1.92;;
48651;SDS011;34442;52.362;-1.302;2023-10-13T06:34:12;4.07;;;1.85;;
48651;SDS011;34442;52.362;-1.302;2023-10-13T06:37:01;6.78;;;2.10;;
48651;SDS011;34442;52.362;-1.302;2023-10-13T06:39:46;7.18;;;2.53;;
48651;SDS011;34442;52.362;-1.302;2023-10-13T06:42:32;4.63;;;1.98;;
48651;SDS011;34442;52.362;-1.302;2023-10-13T06:45:27;6.43;;;2.60;;
48651;SDS011;34442;52.362;-1.302;2023-10-13T06:48:13;6.38;;;2.08;;
48651;SDS011;34442;52.362;-1.302;2023-10-13T06:51:01;4.65;;;1.95;;
48651;SDS011;34442;52.362;-1.302;2023-10-13T06:54:03;5.90;;;2.10;;
48651;SDS011;34442;52.362;-1.302;2023-10-13T06:56:55;6.00;;;1.95;;
48651;SDS011;34442;52.362;-1.302;2023-10-13T06:59:41;7.25;;;2.50;;
48651;SDS011;34442;52.362;-1.302;2023-10-13T07:02:27;8.30;;;2.75;;
48651;SDS011;34442;52.362;-1.302;2023-10-13T07:05:18;8.32;;;2.58;;
48651;SDS011;34442;52.362;-1.302;2023-10-13T07:08:05;8.00;;;2.50;;
48651;SDS011;34442;52.362;-1.302;2023-10-13T07:10:52;6.43;;;2.45;;
48651;SDS011;34442;52.362;-1.302;2023-10-13T07:13:50;5.60;;;2.10;;
48651;SDS011;34442;52.362;-1.302;2023-10-13T07:16:44;4.32;;;2.00;;
48651;SDS011;34442;52.362;-1.302;2023-10-13T07:19:45;5.50;;;2.30;;
48651;SDS011;34442;52.362;-1.302;2023-10-13T07:22:38;4.30;;;1.70;;
48651;SDS011;34442;52.362;-1.302;2023-10-13T07:25:25;6.50;;;2.92;;
48651;SDS011;34442;52.362;-1.302;2023-10-13T07:28:11;4.88;;;2.00;;
48651;SDS011;34442;52.362;-1.302;2023-10-13T07:30:57;9.52;;;2.42;;
48651;SDS011;34442;52.362;-1.302;2023-10-13T07:33:46;8.57;;;2.50;;
48651;SDS011;34442;52.362;-1.302;2023-10-13T07:36:32;6.60;;;2.15;;
48651;SDS011;34442;52.362;-1.302;2023-10-13T07:39:24;7.15;;;1.92;;
48651;SDS011;34442;52.362;-1.302;2023-10-13T07:42:11;4.97;;;1.63;;
48651;SDS011;34442;52.362;-1.302;2023-10-13T07:45:07;5.88;;;2.03;;
48651;SDS011;34442;52.362;-1.302;2023-10-13T07:47:56;6.68;;;1.98;;
48651;SDS011;34442;52.362;-1.302;2023-10-13T07:50:45;4.82;;;1.58;;
48651;SDS011;34442;52.362;-1.302;2023-10-13T07:53:31;6.88;;;1.65;;
48651;SDS011;34442;52.362;-1.302;2023-10-13T07:56:20;6.03;;;2.22;;
48651;SDS011;34442;52.362;-1.302;2023-10-13T07:59:07;5.50;;;1.98;;
48651;SDS011;34442;52.362;-1.302;2023-10-13T08:01:54;5.00;;;1.70;;
48651;SDS011;34442;52.362;-1.302;2023-10-13T08:04:57;6.40;;;1.55;;
48651;SDS011;34442;52.362;-1.302;2023-10-13T08:07:43;5.93;;;1.80;;
48651;SDS011;34442;52.362;-1.302;2023-10-13T08:10:34;3.95;;;1.58;;
48651;SDS011;34442;52.362;-1.302;2023-10-13T08:13:21;3.05;;;1.40;;
48651;SDS011;34442;52.362;-1.302;2023-10-13T08:16:08;3.65;;;1.40;;
48651;SDS011;34442;52.362;-1.302;2023-10-13T08:18:54;5.13;;;1.33;;
48651;SDS011;34442;52.362;-1.302;2023-10-13T08:21:41;3.95;;;1.23;;
48651;SDS011;34442;52.362;-1.302;2023-10-13T08:24:59;4.18;;;1.30;;
48651;SDS011;34442;52.362;-1.302;2023-10-13T08:28:03;3.78;;;1.42;;
48651;SDS011;34442;52.362;-1.302;2023-10-13T08:31:12;4.20;;;1.52;;
48651;SDS011;34442;52.362;-1.302;2023-10-13T08:34:07;3.80;;;1.20;;
48651;SDS011;34442;52.362;-1.302;2023-10-13T08:37:00;4.20;;;1.30;;
48651;SDS011;34442;52.362;-1.302;2023-10-13T08:39:59;2.72;;;1.15;;
48651;SDS011;34442;52.362;-1.302;2023-10-13T08:42:45;3.00;;;1.05;;
48651;SDS011;34442;52.362;-1.302;2023-10-13T08:45:31;3.10;;;1.15;;
48651;SDS011;34442;52.362;-1.302;2023-10-13T08:48:22;3.17;;;1.20;;
48651;SDS011;34442;52.362;-1.302;2023-10-13T08:51:16;4.88;;;1.48;;
48651;SDS011;34442;52.362;-1.302;2023-10-13T08:54:17;2.70;;;1.00;;
48651;SDS011;34442;52.362;-1.302;2023-10-13T08:57:19;4.63;;;1.30;;
48651;SDS011;34442;52.362;-1.302;2023-10-13T09:00:19;2.60;;;1.00;;
48651;SDS011;34442;52.362;-1.302;2023-10-13T09:03:34;4.65;;;1.13;;
48651;SDS011;34442;52.362;-1.302;2023-10-13T09:06:26;4.82;;;1.20;;
48651;SDS011;34442;52.362;-1.302;2023-10-13T09:09:12;2.95;;;1.05;;
48651;SDS011;34442;52.362;-1.302;2023-10-13T09:15:06;3.58;;;1.13;;
48651;SDS011;34442;52.362;-1.302;2023-10-13T09:17:59;5.07;;;1.08;;
48651;SDS011;34442;52.362;-1.302;2023-10-13T09:21:01;4.68;;;1.45;;
48651;SDS011;34442;52.362;-1.302;2023-10-13T09:24:05;3.63;;;1.15;;
48651;SDS011;34442;52.362;-1.302;2023-10-13T09:27:12;2.28;;;0.73;;
48651;SDS011;34442;52.362;-1.302;2023-10-13T09:29:58;5.43;;;1.20;;
48651;SDS011;34442;52.362;-1.302;2023-10-13T09:33:01;2.47;;;1.37;;
48651;SDS011;34442;52.362;-1.302;2023-10-13T09:35:47;4.95;;;1.20;;
48651;SDS011;34442;52.362;-1.302;2023-10-13T09:38:36;3.05;;;1.00;;
48651;SDS011;34442;52.362;-1.302;2023-10-13T09:41:25;3.90;;;1.00;;
48651;SDS011;34442;52.362;-1.302;2023-10-13T09:44:11;3.45;;;1.00;;
48651;SDS011;34442;52.362;-1.302;2023-10-13T09:47:01;1.92;;;0.77;;
48651;SDS011;34442;52.362;-1.302;2023-10-13T09:50:02;1.02;;;0.60;;
48651;SDS011;34442;52.362;-1.302;2023-10-13T09:53:10;3.83;;;0.80;;
48651;SDS011;34442;52.362;-1.302;2023-10-13T09:59:00;3.50;;;0.75;;
48651;SDS011;34442;52.362;-1.302;2023-10-13T10:01:54;4.45;;;1.00;;
48651;SDS011;34442;52.362;-1.302;2023-10-13T10:04:50;1.33;;;0.65;;
48651;SDS011;34442;52.362;-1.302;2023-10-13T10:07:37;1.95;;;0.70;;
48651;SDS011;34442;52.362;-1.302;2023-10-13T10:10:27;1.52;;;0.75;;
48651;SDS011;34442;52.362;-1.302;2023-10-13T10:14:07;2.75;;;0.70;;
48651;SDS011;34442;52.362;-1.302;2023-10-13T10:19:50;2.92;;;0.90;;
48651;SDS011;34442;52.362;-1.302;2023-10-13T10:22:40;0.93;;;0.73;;
48651;SDS011;34442;52.362;-1.302;2023-10-13T10:28:23;2.17;;;0.77;;
48651;SDS011;34442;52.362;-1.302;2023-10-13T10:31:09;2.17;;;0.50;;
48651;SDS011;34442;52.362;-1.302;2023-10-13T10:33:57;3.85;;;0.90;;
48651;SDS011;34442;52.362;-1.302;2023-10-13T10:36:46;1.80;;;0.95;;
48651;SDS011;34442;52.362;-1.302;2023-10-13T10:39:34;2.05;;;0.82;;
48651;SDS011;34442;52.362;-1.302;2023-10-13T10:42:30;0.88;;;0.52;;
48651;SDS011;34442;52.362;-1.302;2023-10-13T10:45:16;1.67;;;0.90;;
48651;SDS011;34442;52.362;-1.302;2023-10-13T10:48:07;1.70;;;0.70;;
48651;SDS011;34442;52.362;-1.302;2023-10-13T10:51:03;3.30;;;0.85;;
48651;SDS011;34442;52.362;-1.302;2023-10-13T10:53:52;1.00;;;0.60;;
48651;SDS011;34442;52.362;-1.302;2023-10-13T10:56:38;2.90;;;0.75;;
48651;SDS011;34442;52.362;-1.302;2023-10-13T10:59:24;3.28;;;1.02;;
48651;SDS011;34442;52.362;-1.302;2023-10-13T11:02:11;1.23;;;0.70;;
48651;SDS011;34442;52.362;-1.302;2023-10-13T11:05:00;2.35;;;0.90;;
48651;SDS011;34442;52.362;-1.302;2023-10-13T11:07:47;3.30;;;0.85;;
48651;SDS011;34442;52.362;-1.302;2023-10-13T11:10:36;1.23;;;0.70;;
48651;SDS011;34442;52.362;-1.302;2023-10-13T11:13:41;3.40;;;0.77;;
48651;SDS011;34442;52.362;-1.302;2023-10-13T11:22:21;3.05;;;0.85;;
48651;SDS011;34442;52.362;-1.302;2023-10-13T11:25:29;1.13;;;0.63;;
48651;SDS011;34442;52.362;-1.302;2023-10-13T11:28:19;1.20;;;0.50;;
48651;SDS011;34442;52.362;-1.302;2023-10-13T11:31:14;1.55;;;0.70;;
48651;SDS011;34442;52.362;-1.302;2023-10-13T11:34:04;2.42;;;0.75;;
48651;SDS011;34442;52.362;-1.302;2023-10-13T11:36:51;2.60;;;0.63;;
48651;SDS011;34442;52.362;-1.302;2023-10-13T11:39:37;2.53;;;0.60;;
48651;SDS011;34442;52.362;-1.302;2023-10-13T11:42:27;1.98;;;0.77;;
48651;SDS011;34442;52.362;-1.302;2023-10-13T11:45:13;1.13;;;0.68;;
48651;SDS011;34442;52.362;-1.302;2023-10-13T11:48:25;2.42;;;0.80;;
48651;SDS011;34442;52.362;-1.302;2023-10-13T11:51:22;1.05;;;0.55;;
48651;SDS011;34442;52.362;-1.302;2023-10-13T11:54:20;0.60;;;0.50;;
48651;SDS011;34442;52.362;-1.302;2023-10-13T11:57:08;2.72;;;0.75;;
48651;SDS011;34442;52.362;-1.302;2023-10-13T11:59:54;1.15;;;0.75;;
48651;SDS011;34442;52.362;-1.302;2023-10-13T12:02:41;2.63;;;0.85;;
48651;SDS011;34442;52.362;-1.302;2023-10-13T12:05:45;0.85;;;0.55;;
48651;SDS011;34442;52.362;-1.302;2023-10-13T12:08:45;3.15;;;1.10;;
48651;SDS011;34442;52.362;-1.302;2023-10-13T12:11:38;1.63;;;0.80;;
48651;SDS011;34442;52.362;-1.302;2023-10-13T12:14:26;1.27;;;0.80;;
48651;SDS011;34442;52.362;-1.302;2023-10-13T12:20:13;1.38;;;0.55;;
48651;SDS011;34442;52.362;-1.302;2023-10-13T12:23:17;1.40;;;0.70;;
48651;SDS011;34442;52.362;-1.302;2023-10-13T12:26:04;0.60;;;0.60;;
48651;SDS011;34442;52.362;-1.302;2023-10-13T12:29:04;2.08;;;0.90;;
48651;SDS011;34442;52.362;-1.302;2023-10-13T12:31:54;1.95;;;0.60;;
48651;SDS011;34442;52.362;-1.302;2023-10-13T12:34:56;2.13;;;0.68;;
48651;SDS011;34442;52.362;-1.302;2023-10-13T12:38:02;2.05;;;0.70;;
48651;SDS011;34442;52.362;-1.302;2023-10-13T12:40:51;1.20;;;0.70;;
48651;SDS011;34442;52.362;-1.302;2023-10-13T12:43:55;2.17;;;0.70;;
48651;SDS011;34442;52.362;-1.302;2023-10-13T12:50:04;1.80;;;0.80;;
48651;SDS011;34442;52.362;-1.302;2023-10-13T12:52:58;2.35;;;0.90;;
48651;SDS011;34442;52.362;-1.302;2023-10-13T12:55:45;1.48;;;0.85;;
48651;SDS011;34442;52.362;-1.302;2023-10-13T12:58:30;2.60;;;0.80;;
48651;SDS011;34442;52.362;-1.302;2023-10-13T13:01:17;0.98;;;0.60;;
48651;SDS011;34442;52.362;-1.302;2023-10-13T13:04:05;2.65;;;0.80;;
48651;SDS011;34442;52.362;-1.302;2023-10-13T13:06:57;2.97;;;0.90;;
48651;SDS011;34442;52.362;-1.302;2023-10-13T13:09:42;1.42;;;0.60;;
48651;SDS011;34442;52.362;-1.302;2023-10-13T13:12:28;1.98;;;0.85;;
48651;SDS011;34442;52.362;-1.302;2023-10-13T13:15:14;1.80;;;0.70;;
48651;SDS011;34442;52.362;-1.302;2023-10-13T13:18:00;1.17;;;0.63;;
48651;SDS011;34442;52.362;-1.302;2023-10-13T13:20:55;1.02;;;0.55;;
48651;SDS011;34442;52.362;-1.302;2023-10-13T13:23:41;1.10;;;0.60;;
48651;SDS011;34442;52.362;-1.302;2023-10-13T13:26:27;0.98;;;0.50;;
48651;SDS011;34442;52.362;-1.302;2023-10-13T13:29:16;1.02;;;0.65;;
48651;SDS011;34442;52.362;-1.302;2023-10-13T13:32:02;1.50;;;0.55;;
48651;SDS011;34442;52.362;-1.302;2023-10-13T13:34:50;3.10;;;0.80;;
48651;SDS011;34442;52.362;-1.302;2023-10-13T13:37:57;2.60;;;0.90;;
48651;SDS011;34442;52.362;-1.302;2023-10-13T13:40:50;1.20;;;0.70;;
48651;SDS011;34442;52.362;-1.302;2023-10-13T13:43:39;1.10;;;0.75;;
48651;SDS011;34442;52.362;-1.302;2023-10-13T13:46:35;0.80;;;0.60;;
48651;SDS011;34442;52.362;-1.302;2023-10-13T13:49:26;0.40;;;0.35;;
48651;SDS011;34442;52.362;-1.302;2023-10-13T13:52:25;0.82;;;0.60;;
48651;SDS011;34442;52.362;-1.302;2023-10-13T13:55:19;0.50;;;0.50;;
48651;SDS011;34442;52.362;-1.302;2023-10-13T13:58:05;0.52;;;0.52;;
48651;SDS011;34442;52.362;-1.302;2023-10-13T14:00:59;0.55;;;0.50;;
48651;SDS011;34442;52.362;-1.302;2023-10-13T14:03:57;2.38;;;0.60;;
48651;SDS011;34442;52.362;-1.302;2023-10-13T14:06:48;0.40;;;0.40;;
48651;SDS011;34442;52.362;-1.302;2023-10-13T14:09:35;0.32;;;0.32;;
48651;SDS011;34442;52.362;-1.302;2023-10-13T14:12:25;0.47;;;0.47;;
48651;SDS011;34442;52.362;-1.302;2023-10-13T14:15:15;0.88;;;0.50;;
48651;SDS011;34442;52.362;-1.302;2023-10-13T14:18:10;0.50;;;0.50;;
48651;SDS011;34442;52.362;-1.302;2023-10-13T14:21:02;0.52;;;0.50;;
48651;SDS011;34442;52.362;-1.302;2023-10-13T14:23:49;0.70;;;0.63;;
48651;SDS011;34442;52.362;-1.302;2023-10-13T14:26:38;0.68;;;0.68;;
48651;SDS011;34442;52.362;-1.302;2023-10-13T14:29:26;0.60;;;0.60;;
48651;SDS011;34442;52.362;-1.302;2023-10-13T14:32:12;0.70;;;0.70;;
48651;SDS011;34442;52.362;-1.302;2023-10-13T14:35:00;0.82;;;0.77;;
48651;SDS011;34442;52.362;-1.302;2023-10-13T14:37:56;1.35;;;0.70;;
48651;SDS011;34442;52.362;-1.302;2023-10-13T14:40:42;0.77;;;0.70;;
48651;SDS011;34442;52.362;-1.302;2023-10-13T14:43:27;0.95;;;0.60;;
48651;SDS011;34442;52.362;-1.302;2023-10-13T14:46:14;0.70;;;0.65;;
48651;SDS011;34442;52.362;-1.302;2023-10-13T14:49:01;1.05;;;0.68;;
48651;SDS011;34442;52.362;-1.302;2023-10-13T14:51:48;1.13;;;0.80;;
48651;SDS011;34442;52.362;-1.302;2023-10-13T14:54:35;2.30;;;0.70;;
48651;SDS011;34442;52.362;-1.302;2023-10-13T14:57:21;0.60;;;0.60;;
48651;SDS011;34442;52.362;-1.302;2023-10-13T15:00:11;1.58;;;0.60;;
48651;SDS011;34442;52.362;-1.302;2023-10-13T15:02:59;1.02;;;0.80;;
48651;SDS011;34442;52.362;-1.302;2023-10-13T15:05:46;1.10;;;0.77;;
48651;SDS011;34442;52.362;-1.302;2023-10-13T15:08:32;1.17;;;0.80;;
48651;SDS011;34442;52.362;-1.302;2023-10-13T15:11:18;0.98;;;0.70;;
48651;SDS011;34442;52.362;-1.302;2023-10-13T15:14:04;0.60;;;0.60;;
48651;SDS011;34442;52.362;-1.302;2023-10-13T15:16:53;0.63;;;0.60;;
48651;SDS011;34442;52.362;-1.302;2023-10-13T15:19:38;1.45;;;0.63;;
48651;SDS011;34442;52.362;-1.302;2023-10-13T15:22:25;3.72;;;1.02;;
48651;SDS011;34442;52.362;-1.302;2023-10-13T15:25:13;1.08;;;0.80;;
48651;SDS011;34442;52.362;-1.302;2023-10-13T15:28:14;0.98;;;0.70;;
48651;SDS011;34442;52.362;-1.302;2023-10-13T15:31:10;1.25;;;0.80;;
48651;SDS011;34442;52.362;-1.302;2023-10-13T15:34:11;1.25;;;0.88;;
48651;SDS011;34442;52.362;-1.302;2023-10-13T15:37:00;1.85;;;0.80;;
48651;SDS011;34442;52.362;-1.302;2023-10-13T15:39:50;3.53;;;1.10;;
48651;SDS011;34442;52.362;-1.302;2023-10-13T15:42:36;3.67;;;0.90;;
48651;SDS011;34442;52.362;-1.302;2023-10-13T15:45:26;1.52;;;0.90;;
48651;SDS011;34442;52.362;-1.302;2023-10-13T15:48:24;2.72;;;1.10;;
48651;SDS011;34442;52.362;-1.302;2023-10-13T15:51:10;1.90;;;0.90;;
48651;SDS011;34442;52.362;-1.302;2023-10-13T15:53:59;1.73;;;1.10;;
48651;SDS011;34442;52.362;-1.302;2023-10-13T15:56:48;3.13;;;0.93;;
48651;SDS011;34442;52.362;-1.302;2023-10-13T15:59:35;3.83;;;1.33;;
48651;SDS011;34442;52.362;-1.302;2023-10-13T16:02:20;5.78;;;1.58;;
48651;SDS011;34442;52.362;-1.302;2023-10-13T16:05:09;5.95;;;1.45;;
48651;SDS011;34442;52.362;-1.302;2023-10-13T16:07:55;4.43;;;1.10;;
48651;SDS011;34442;52.362;-1.302;2023-10-13T16:10:41;3.58;;;1.20;;
48651;SDS011;34442;52.362;-1.302;2023-10-13T16:15:09;5.40;;;1.55;;
48651;SDS011;34442;52.362;-1.302;2023-10-13T16:17:59;4.30;;;1.50;;
48651;SDS011;34442;52.362;-1.302;2023-10-13T16:20:44;4.43;;;1.48;;
48651;SDS011;34442;52.362;-1.302;2023-10-13T16:25:35;1.30;;;0.90;;
48651;SDS011;34442;52.362;-1.302;2023-10-13T16:30:41;2.45;;;1.10;;
48651;SDS011;34442;52.362;-1.302;2023-10-13T16:33:27;2.42;;;1.00;;
48651;SDS011;34442;52.362;-1.302;2023-10-13T16:36:14;2.30;;;1.08;;
48651;SDS011;34442;52.362;-1.302;2023-10-13T16:39:00;3.70;;;1.17;;
48651;SDS011;34442;52.362;-1.302;2023-10-13T16:41:46;3.00;;;1.33;;
48651;SDS011;34442;52.362;-1.302;2023-10-13T16:44:32;2.55;;;1.00;;
48651;SDS011;34442;52.362;-1.302;2023-10-13T16:47:17;1.88;;;1.25;;
48651;SDS011;34442;52.362;-1.302;2023-10-13T16:50:03;1.90;;;1.10;;
48651;SDS011;34442;52.362;-1.302;2023-10-13T16:52:49;3.42;;;1.30;;
48651;SDS011;34442;52.362;-1.302;2023-10-13T16:55:34;5.40;;;1.30;;
48651;SDS011;34442;52.362;-1.302;2023-10-13T16:58:21;2.60;;;1.13;;
48651;SDS011;34442;52.362;-1.302;2023-10-13T17:01:13;2.55;;;1.15;;
48651;SDS011;34442;52.362;-1.302;2023-10-13T17:04:00;4.00;;;1.48;;
48651;SDS011;34442;52.362;-1.302;2023-10-13T17:06:46;2.65;;;1.10;;
48651;SDS011;34442;52.362;-1.302;2023-10-13T17:09:32;4.28;;;1.33;;
48651;SDS011;34442;52.362;-1.302;2023-10-13T17:12:19;6.18;;;1.50;;
48651;SDS011;34442;52.362;-1.302;2023-10-13T17:15:04;2.78;;;1.10;;
48651;SDS011;34442;52.362;-1.302;2023-10-13T17:18:00;4.30;;;1.25;;
48651;SDS011;34442;52.362;-1.302;2023-10-13T17:20:50;2.78;;;1.08;;
48651;SDS011;34442;52.362;-1.302;2023-10-13T17:23:36;4.30;;;1.40;;
48651;SDS011;34442;52.362;-1.302;2023-10-13T17:26:22;3.95;;;1.35;;
48651;SDS011;34442;52.362;-1.302;2023-10-13T17:29:09;3.55;;;1.30;;
48651;SDS011;34442;52.362;-1.302;2023-10-13T17:31:55;4.75;;;1.50;;
48651;SDS011;34442;52.362;-1.302;2023-10-13T17:34:41;4.32;;;1.80;;